Whitefish, Canada
Current Conditions -  °F | °C
As of 7:00 AM on Monday 22 Dec 2014 (Local Time) from CYSB Reporting Station
Light Snow Light Snow  
Wind Chill: 13°   Ceiling: 1800
Heat Index: 25°   Visibility: 12mi
Dew Point: 23°   Wind: 14mph
Humidity: 93%   Direction: 140°SE
Pressure: 30.16"   Gusts: NA
Location:  46.37°N, 81.32°W
Report Text: CYSB 221200Z 14012KT 12SM -SN OVC018 M04/M05 A3016 RMK SC8 SLP233
Loading
Personal Weather Stations






























Interactive Weather Map New forecast layout! Learn more

10-Day Weather Forecast

Advertisements
Track Severe Weather on mobile